Accueil
METAR-TAF:

METAR-TAF

Aéroports :

Luxeuil-les-Bains, France

Base aérienne 116 Luxeuil-Saint Sauveur

latitude: 47-47N, longitude: 006-21E, altitude: 278 m

Observation

Le bulletin a été fait il y a 11 minutes, à 11:00 UTC
Vent 8 kt de sud-ouest
Température 7°C
Humidité 93%
Pression 1014 hPa
Visibilité 10 km ou plus
Quelques nuages à une hauteur de 2200 ft
Nuages fragmentés à une hauteur de 4200 ft
Nuages fragmentés à une hauteur de 4900 ft
faible bruine

METAR: LFSX 251100Z AUTO 23008KT 9999 -DZ FEW022 BKN042 BKN049 07/06 Q1014

Heure: 12:11 (11:11 UTC)

Prévision

Le bulletin a été fait il y a 21 heures et 11 minutes, à 14:00 UTC
Prévision valable du 24 à 15 UTC au 25 à 15 UTC
Vent 15 kt de sud-ouest
Visibilité: 6000 m
Nuages fragmentés à une hauteur de 1900 ft
Temporairement
du 24 à 18 UTC au 25 à 03 UTC
Visibilité: 4000 m
pluie

TAF: LFSX 241400Z 2415/2515 22015KT 6000 BKN019 TEMPO 2418/2503 4000 RA

Observations et prévisions météorologiques de plus de 4000 aéroports (messages METAR et TAF).

Les stations disponibles sont représentées par des disques jaunes et rouges sur la carte.

Passer la souris dessus pour voir le nom de la station.

Cliquer dessus pour voir les observations et prévisions météorologiques.

Pour changer de carte: cliquez sur les boutons verts avec une croix noire pour zoomer, sur le bouton vert avec un tiret pour effectuer un zoom arrière, ou sur les flèches vertes pour les cartes adjacentes.


METAR-TAF: